Time;durP1;ratioP1;P1;durP2;ratioP2;P2;SDS_P1;SDS_P2;PMS_P1;PMS_P2;Temp;Humidity;BMP_temperature;BMP_pressure;BME280_temperature;BME280_humidity;BME280_pressure;Samples;Min_cycle;Max_cycle;Signal;HPM_P1;HPM_P2
2021/12/03 00:01:58;;;;;;;16.98;8.55;;;;;;;-0.54;87.33;98837.09;4948936;28;20134;-62
2021/12/03 00:04:23;;;;;;;14.90;8.15;;;;;;;-0.60;87.48;98832.53;4945191;28;20114;-62
2021/12/03 00:06:49;;;;;;;14.82;9.05;;;;;;;-0.46;86.33;98837.00;4951143;28;20667;-62
2021/12/03 00:09:14;;;;;;;16.80;9.68;;;;;;;-0.56;86.57;98836.44;4949388;28;20039;-61
2021/12/03 00:11:40;;;;;;;11.70;7.30;;;;;;;-0.52;86.87;98829.84;4943064;28;20039;-62
2021/12/03 00:14:05;;;;;;;15.25;7.82;;;;;;;-0.45;86.54;98842.09;4967397;28;20081;-62
2021/12/03 00:16:31;;;;;;;16.13;8.15;;;;;;;-0.50;87.30;98843.59;4946332;28;20073;-62
2021/12/03 00:18:56;;;;;;;13.55;7.90;;;;;;;-0.46;86.72;98839.63;4949097;28;20035;-62
2021/12/03 00:21:24;;;;;;;13.68;7.90;;;;;;;-0.49;86.93;98845.25;4941570;28;20050;-60
2021/12/03 00:23:50;;;;;;;18.13;9.20;;;;;;;-0.57;87.44;98847.97;4944346;28;20094;-60
2021/12/03 00:26:15;;;;;;;15.45;8.48;;;;;;;-0.58;87.29;98838.44;4943944;28;20050;-61
2021/12/03 00:28:41;;;;;;;15.05;7.82;;;;;;;-0.75;88.88;98845.66;4947950;28;20038;-60
2021/12/03 00:31:06;;;;;;;15.55;9.32;;;;;;;-0.82;89.75;98844.75;4944266;28;20934;-61
2021/12/03 00:33:32;;;;;;;17.70;9.45;;;;;;;-0.81;89.81;98841.94;4943956;28;20297;-60
2021/12/03 00:36:03;;;;;;;12.32;5.90;;;;;;;-0.77;89.58;98848.50;4942084;28;20130;-60
2021/12/03 00:38:30;;;;;;;;;;;;;;;-0.83;89.28;98849.19;4944597;28;20042;-60
2021/12/03 00:40:55;;;;;;;16.98;7.43;;;;;;;-0.91;89.54;98844.81;4944770;28;19927;-62
2021/12/03 00:43:21;;;;;;;18.17;8.35;;;;;;;-0.93;90.04;98849.44;4944289;28;20031;-61
2021/12/03 00:45:47;;;;;;;15.95;8.70;;;;;;;-0.93;89.79;98843.38;4943858;28;20047;-60
2021/12/03 00:48:12;;;;;;;18.35;8.80;;;;;;;-0.91;89.72;98851.91;4943433;28;20461;-60
2021/12/03 00:50:38;;;;;;;13.35;7.43;;;;;;;-0.90;89.50;98838.59;4943081;28;20070;-60
2021/12/03 00:53:03;;;;;;;16.10;8.38;;;;;;;-0.96;89.44;98838.47;4952763;28;20560;-60
2021/12/03 00:55:29;;;;;;;15.18;8.38;;;;;;;-0.98;89.35;98838.63;4968155;28;20057;-61
2021/12/03 00:57:55;;;;;;;18.42;8.75;;;;;;;-1.13;89.83;98833.31;4948706;28;20394;-61
2021/12/03 01:00:23;;;;;;;15.57;9.18;;;;;;;-1.17;90.73;98842.59;4942949;28;20122;-61
2021/12/03 01:02:49;;;;;;;21.77;9.32;;;;;;;-1.29;91.01;98832.66;4953440;28;20079;-62
2021/12/03 01:05:15;;;;;;;18.95;8.75;;;;;;;-1.46;92.35;98837.22;4946564;28;20446;-66
2021/12/03 01:07:40;;;;;;;20.33;8.80;;;;;;;-1.48;92.32;98839.19;4945434;28;20038;-61
2021/12/03 01:10:07;;;;;;;16.90;9.63;;;;;;;-1.53;92.70;98843.16;4946167;28;20059;-60
2021/12/03 01:12:33;;;;;;;18.35;7.43;;;;;;;-1.58;93.06;98839.41;4958047;28;20031;-62
2021/12/03 01:14:59;;;;;;;17.63;8.57;;;;;;;-1.67;93.59;98838.66;4943473;28;20110;-60
2021/12/03 01:17:25;;;;;;;20.05;9.13;;;;;;;-1.70;93.49;98846.84;4943240;28;20472;-60
2021/12/03 01:19:51;;;;;;;17.92;9.15;;;;;;;-1.71;93.62;98858.38;4943061;28;20050;-61
2021/12/03 01:22:16;;;;;;;23.45;10.18;;;;;;;-1.68;93.05;98854.59;4944793;28;20043;-61
2021/12/03 01:24:42;;;;;;;20.38;9.88;;;;;;;-1.59;92.73;98864.06;4949519;28;20076;-61
2021/12/03 01:27:07;;;;;;;15.23;8.60;;;;;;;-1.49;92.03;98861.22;4948373;28;20032;-61
2021/12/03 01:29:33;;;;;;;17.95;8.48;;;;;;;-1.50;91.83;98867.44;4953490;28;20118;-61
2021/12/03 01:31:59;;;;;;;18.85;9.10;;;;;;;-1.47;91.92;98874.97;4954432;28;20603;-62
2021/12/03 01:34:24;;;;;;;18.83;9.18;;;;;;;-1.44;91.05;98877.28;4962465;28;20061;-61
2021/12/03 01:36:50;;;;;;;19.45;8.63;;;;;;;-1.49;91.08;98874.38;4954688;28;20046;-61
2021/12/03 01:39:16;;;;;;;18.48;8.57;;;;;;;-1.47;90.56;98874.97;4952948;28;20142;-61
2021/12/03 01:41:42;;;;;;;24.50;10.02;;;;;;;-1.38;90.46;98881.84;4946726;28;20047;-61
2021/12/03 01:44:08;;;;;;;23.20;9.43;;;;;;;-1.52;90.72;98886.84;4947519;28;20039;-61
2021/12/03 01:46:34;;;;;;;15.35;6.47;;;;;;;-1.40;90.77;98889.91;4945574;28;20379;-61
2021/12/03 01:48:59;;;;;;;14.20;7.40;;;;;;;-1.55;91.07;98896.88;4946546;28;20123;-61
2021/12/03 01:51:25;;;;;;;16.55;9.10;;;;;;;-1.60;91.44;98907.94;4953987;28;20063;-61
2021/12/03 01:53:51;;;;;;;18.50;7.85;;;;;;;-1.73;91.75;98905.84;4946254;28;20123;-61
2021/12/03 01:56:17;;;;;;;17.98;8.95;;;;;;;-1.63;91.59;98910.88;4947310;28;20133;-61
2021/12/03 01:58:43;;;;;;;19.58;9.27;;;;;;;-1.54;91.07;98909.84;4947238;28;20031;-61
2021/12/03 02:01:11;;;;;;;19.02;8.32;;;;;;;-1.54;90.81;98907.22;4952243;28;20445;-61
2021/12/03 02:03:38;;;;;;;18.00;8.90;;;;;;;-1.42;90.48;98901.56;4947139;28;20142;-62
2021/12/03 02:06:04;;;;;;;13.32;7.05;;;;;;;-1.38;90.69;98894.97;4946828;28;20047;-61
2021/12/03 02:08:30;;;;;;;23.85;9.55;;;;;;;-1.56;91.01;98900.50;4952931;28;20105;-61
2021/12/03 02:10:55;;;;;;;18.35;9.35;;;;;;;-1.60;91.60;98905.31;4960691;28;20126;-61
2021/12/03 02:13:21;;;;;;;14.15;5.57;;;;;;;-1.56;90.66;98901.31;4951974;28;20030;-61
2021/12/03 02:15:47;;;;;;;20.50;9.23;;;;;;;-1.69;91.05;98916.03;4945664;28;20041;-61
2021/12/03 02:18:13;;;;;;;17.98;8.48;;;;;;;-1.65;91.27;98912.03;4960666;28;20031;-61
2021/12/03 02:20:45;;;;;;;12.38;6.43;;;;;;;-1.71;91.29;98918.81;4957590;28;20054;-60
2021/12/03 02:23:12;;;;;;;14.73;7.72;;;;;;;-1.79;91.79;98921.47;4951513;28;20659;-61
2021/12/03 02:25:38;;;;;;;10.68;5.88;;;;;;;-1.79;91.97;98911.78;4964433;28;20050;-61
2021/12/03 02:28:03;;;;;;;16.92;8.50;;;;;;;-1.92;92.30;98916.78;4945852;28;20129;-61
2021/12/03 02:30:29;;;;;;;12.70;7.22;;;;;;;-1.97;92.61;98919.09;4948327;28;20043;-61
2021/12/03 02:32:54;;;;;;;14.73;8.00;;;;;;;-2.07;92.98;98921.91;4953387;28;20410;-61
2021/12/03 02:35:21;;;;;;;18.92;7.65;;;;;;;-2.07;93.14;98921.91;4944564;28;20048;-61
2021/12/03 02:37:47;;;;;;;19.80;8.10;;;;;;;-2.03;92.87;98922.38;4945886;28;20076;-61
2021/12/03 02:40:14;;;;;;;14.65;7.72;;;;;;;-2.07;92.89;98924.53;4945540;28;20609;-61
2021/12/03 02:42:40;;;;;;;10.73;5.63;;;;;;;-2.06;93.31;98920.09;4959424;28;20544;-61
2021/12/03 02:45:06;;;;;;;18.70;8.48;;;;;;;-2.15;93.29;98927.16;4947345;28;20058;-61
2021/12/03 02:47:31;;;;;;;10.85;6.57;;;;;;;-2.23;93.92;98925.38;4945282;28;20651;-61
2021/12/03 02:49:57;;;;;;;5.45;3.85;;;;;;;-2.22;94.07;98910.44;4945707;28;20031;-60
2021/12/03 02:52:22;;;;;;;14.98;6.97;;;;;;;-2.32;94.53;98920.31;4946383;28;20071;-61
2021/12/03 02:54:48;;;;;;;8.82;5.50;;;;;;;-2.26;94.83;98927.53;4948786;28;20043;-60
2021/12/03 02:57:13;;;;;;;11.07;4.68;;;;;;;-2.30;94.73;98918.34;4945368;28;20400;-60
2021/12/03 02:59:39;;;;;;;14.00;7.63;;;;;;;-2.28;95.05;98916.38;4950114;28;20425;-60
2021/12/03 03:02:04;;;;;;;12.80;4.85;;;;;;;-2.38;94.96;98917.38;4944139;28;20489;-60
2021/12/03 03:04:30;;;;;;;14.02;7.63;;;;;;;-2.34;95.26;98903.94;4947270;28;20027;-60
2021/12/03 03:06:56;;;;;;;11.45;5.97;;;;;;;-2.36;95.33;98903.28;4946296;28;20583;-61
2021/12/03 03:09:21;;;;;;;9.18;5.15;;;;;;;-2.32;95.29;98915.06;4947968;28;20031;-60
2021/12/03 03:11:47;;;;;;;17.35;8.00;;;;;;;-2.30;95.39;98908.66;4945214;28;20529;-61
2021/12/03 03:14:12;;;;;;;10.55;5.82;;;;;;;-2.33;95.20;98902.94;4945173;28;20039;-61
2021/12/03 03:16:38;;;;;;;15.18;7.70;;;;;;;-2.30;95.24;98902.59;4944070;28;20052;-60
2021/12/03 03:19:17;;;;;;;9.57;5.55;;;;;;;-2.33;95.49;98905.56;4945059;28;20812;-60
2021/12/03 03:21:42;;;;;;;26.55;8.25;;;;;;;-2.36;95.70;98911.16;4942578;28;20593;-60
2021/12/03 03:24:08;;;;;;;14.50;7.40;;;;;;;-2.33;95.33;98908.19;4970628;28;20126;-60
2021/12/03 03:26:35;;;;;;;10.93;5.32;;;;;;;-2.32;95.64;98910.66;4945069;28;20101;-60
2021/12/03 03:29:01;;;;;;;13.35;7.40;;;;;;;-2.28;95.71;98911.13;4949687;28;20045;-60
2021/12/03 03:31:27;;;;;;;14.90;6.85;;;;;;;-2.21;95.38;98912.91;4967477;28;20043;-60
2021/12/03 03:33:52;;;;;;;9.65;6.38;;;;;;;-2.24;95.41;98912.44;4957916;28;20513;-61
2021/12/03 03:36:18;;;;;;;7.18;3.72;;;;;;;-2.20;95.57;98911.09;4952912;28;20043;-61
2021/12/03 03:38:43;;;;;;;19.75;8.13;;;;;;;-2.21;95.66;98906.84;4944694;28;20094;-61
2021/12/03 03:41:09;;;;;;;19.92;9.70;;;;;;;-2.26;95.70;98903.91;4944657;28;20040;-61
2021/12/03 03:43:34;;;;;;;19.65;9.23;;;;;;;-2.25;95.88;98908.16;4944557;28;20115;-60
2021/12/03 03:46:00;;;;;;;17.15;9.30;;;;;;;-2.25;96.03;98916.84;4944281;28;20051;-60
2021/12/03 03:48:25;;;;;;;13.98;7.47;;;;;;;-2.23;95.86;98911.44;4945123;28;20039;-60
2021/12/03 03:50:51;;;;;;;11.05;6.43;;;;;;;-2.17;95.69;98913.41;4942788;28;20074;-60
2021/12/03 03:53:17;;;;;;;14.45;7.47;;;;;;;-2.13;96.18;98912.06;4960328;28;20076;-60
2021/12/03 03:55:42;;;;;;;19.27;7.95;;;;;;;-2.11;96.09;98917.16;4948729;28;20055;-60
2021/12/03 03:58:08;;;;;;;12.43;7.18;;;;;;;-2.10;95.88;98913.53;4943775;28;20042;-60
2021/12/03 04:00:41;;;;;;;14.30;7.80;;;;;;;-2.14;96.03;98920.13;4947659;28;20058;-60
2021/12/03 04:03:07;;;;;;;13.25;6.38;;;;;;;-2.12;96.23;98920.75;4951623;28;20133;-60
2021/12/03 04:05:32;;;;;;;13.77;6.53;;;;;;;-2.10;96.57;98926.66;4951658;28;20066;-60
2021/12/03 04:07:58;;;;;;;10.07;6.00;;;;;;;-2.10;96.71;98930.09;4943939;28;20094;-60
2021/12/03 04:10:24;;;;;;;16.40;6.05;;;;;;;-2.04;96.83;98934.69;4945240;28;20169;-60
2021/12/03 04:12:49;;;;;;;14.40;7.93;;;;;;;-2.06;96.72;98920.91;4943486;28;20114;-60
2021/12/03 04:15:15;;;;;;;39.10;7.40;;;;;;;-1.98;97.06;98927.94;4946674;28;20058;-62
2021/12/03 04:17:40;;;;;;;17.83;7.57;;;;;;;-1.93;97.12;98919.56;4950482;28;20464;-62
2021/12/03 04:20:07;;;;;;;21.67;7.65;;;;;;;-1.97;96.93;98921.72;4943983;28;20047;-61
2021/12/03 04:22:34;;;;;;;15.52;9.27;;;;;;;-1.99;97.42;98911.38;4944119;28;20043;-60
2021/12/03 04:24:59;;;;;;;19.58;9.35;;;;;;;-1.97;97.06;98909.41;4950090;28;20069;-60
2021/12/03 04:27:25;;;;;;;24.48;9.05;;;;;;;-1.97;97.43;98917.28;4949527;28;20138;-60
2021/12/03 04:29:51;;;;;;;16.33;7.47;;;;;;;-1.92;97.32;98918.56;4943491;28;20093;-60
2021/12/03 04:32:17;;;;;;;12.55;6.88;;;;;;;-1.91;97.06;98925.47;4945257;28;20094;-61
2021/12/03 04:34:43;;;;;;;19.10;9.93;;;;;;;-1.88;97.00;98927.75;4943749;28;20042;-60
2021/12/03 04:37:09;;;;;;;17.73;9.38;;;;;;;-1.90;96.86;98919.22;4942798;28;20053;-60
2021/12/03 04:39:34;;;;;;;19.65;9.18;;;;;;;-1.96;96.92;98915.47;4943887;28;20031;-60
2021/12/03 04:42:00;;;;;;;21.15;9.95;;;;;;;-1.86;97.13;98910.00;4943287;28;20758;-60
2021/12/03 04:44:25;;;;;;;22.88;9.55;;;;;;;-1.86;96.48;98912.63;4943867;28;20074;-61
2021/12/03 04:46:51;;;;;;;17.45;8.45;;;;;;;-1.87;96.51;98908.34;4943058;28;20727;-60
2021/12/03 04:49:16;;;;;;;14.88;7.32;;;;;;;-1.84;96.25;98908.84;4949743;28;20394;-60
2021/12/03 04:51:42;;;;;;;11.45;7.07;;;;;;;-1.82;95.92;98904.25;4946415;28;20369;-60
2021/12/03 04:54:07;;;;;;;20.25;8.88;;;;;;;-1.86;95.88;98902.13;4946611;28;20445;-62
2021/12/03 04:56:33;;;;;;;17.55;8.88;;;;;;;-1.77;95.24;98895.84;4948282;28;20581;-61
2021/12/03 04:58:58;;;;;;;18.35;8.38;;;;;;;-1.73;94.96;98894.50;4945958;28;20651;-61
2021/12/03 05:01:24;;;;;;;22.48;11.68;;;;;;;-1.59;94.43;98899.03;4964828;28;20043;-62
2021/12/03 05:03:50;;;;;;;16.55;7.90;;;;;;;-1.69;94.23;98903.69;4951851;28;20031;-62
2021/12/03 05:06:17;;;;;;;22.60;10.38;;;;;;;-1.76;94.99;98910.63;4952445;28;20437;-62
2021/12/03 05:08:43;;;;;;;18.83;9.82;;;;;;;-1.77;95.52;98901.13;4950461;28;20132;-62
2021/12/03 05:11:08;;;;;;;16.20;8.80;;;;;;;-1.76;95.17;98902.75;4949434;28;20494;-61
2021/12/03 05:13:35;;;;;;;13.45;8.52;;;;;;;-1.69;94.81;98905.50;4948300;28;20630;-62
2021/12/03 05:16:01;;;;;;;15.57;8.27;;;;;;;-1.72;94.84;98898.78;4949875;28;20325;-61
2021/12/03 05:18:27;;;;;;;23.65;11.73;;;;;;;-1.66;95.20;98905.16;4947226;28;20078;-61
2021/12/03 05:20:54;;;;;;;14.45;8.40;;;;;;;-1.65;95.04;98901.53;4946609;28;20043;-61
2021/12/03 05:23:20;;;;;;;20.10;10.63;;;;;;;-1.59;94.97;98899.03;4951098;28;20027;-61
2021/12/03 05:25:46;;;;;;;26.77;12.45;;;;;;;-1.64;94.74;98898.75;4946008;28;20105;-61
2021/12/03 05:28:11;;;;;;;18.98;9.50;;;;;;;-1.67;95.39;98899.09;4981426;28;20031;-61
2021/12/03 05:30:38;;;;;;;27.75;10.48;;;;;;;-1.70;95.61;98898.59;4940964;28;20637;-62
2021/12/03 05:33:05;;;;;;;22.77;9.95;;;;;;;-1.65;95.63;98897.09;4952842;28;20529;-62
2021/12/03 05:35:31;;;;;;;20.02;8.65;;;;;;;-1.44;95.29;98898.31;4946752;28;20047;-62
2021/12/03 05:37:56;;;;;;;23.70;10.73;;;;;;;-1.31;94.55;98903.81;4929434;28;20033;-62
2021/12/03 05:40:22;;;;;;;23.77;11.63;;;;;;;-1.48;95.45;98903.09;4946380;28;20039;-62
2021/12/03 05:42:47;;;;;;;15.13;8.27;;;;;;;-1.50;95.70;98904.25;4953347;28;20113;-61
2021/12/03 05:45:15;;;;;;;15.10;9.07;;;;;;;-1.46;96.20;98908.19;4947652;28;20150;-62
2021/12/03 05:47:41;;;;;;;21.90;10.65;;;;;;;-1.36;96.75;98921.94;4945207;28;20501;-62
2021/12/03 05:50:07;;;;;;;24.55;9.95;;;;;;;-1.26;96.14;98927.78;4949554;28;20030;-62
2021/12/03 05:52:33;;;;;;;18.90;9.63;;;;;;;-1.19;95.70;98935.81;4950069;28;20070;-61
2021/12/03 05:54:58;;;;;;;26.73;13.25;;;;;;;-1.23;95.41;98932.69;4946001;28;20660;-62
2021/12/03 05:57:24;;;;;;;25.33;11.40;;;;;;;-1.15;95.58;98945.81;4946141;28;20085;-62
2021/12/03 05:59:50;;;;;;;30.67;11.57;;;;;;;-1.18;95.63;98942.69;4946568;28;20035;-62
2021/12/03 06:02:15;;;;;;;29.73;12.43;;;;;;;-1.10;96.85;98938.22;4948971;28;20077;-62
2021/12/03 06:04:41;;;;;;;26.38;12.82;;;;;;;-1.18;96.44;98937.44;4949503;28;20129;-62
2021/12/03 06:07:07;;;;;;;28.58;11.38;;;;;;;-1.18;96.60;98940.88;4950206;28;20110;-62
2021/12/03 06:09:32;;;;;;;23.15;11.65;;;;;;;-1.16;96.14;98938.06;4947494;28;20417;-62
2021/12/03 06:12:01;;;;;;;30.38;13.00;;;;;;;-1.17;96.50;98937.25;4947390;28;20419;-65
2021/12/03 06:14:28;;;;;;;20.48;11.35;;;;;;;-1.12;96.58;98934.94;4952234;28;20042;-61
2021/12/03 06:16:53;;;;;;;20.63;9.50;;;;;;;-1.01;96.74;98940.78;4954312;28;20035;-61
2021/12/03 06:19:19;;;;;;;21.70;11.25;;;;;;;-0.99;96.85;98944.06;4960419;28;20385;-61
2021/12/03 06:21:45;;;;;;;25.33;11.70;;;;;;;-0.93;96.91;98932.81;4949594;28;20031;-61
2021/12/03 06:24:10;;;;;;;24.67;11.75;;;;;;;-0.94;96.17;98944.34;4949953;28;20059;-61
2021/12/03 06:26:36;;;;;;;27.02;11.93;;;;;;;-0.95;96.32;98942.69;4946661;28;20043;-61
2021/12/03 06:29:01;;;;;;;21.50;10.57;;;;;;;-0.92;96.43;98947.63;4949618;28;20454;-61
2021/12/03 06:31:27;;;;;;;23.58;10.90;;;;;;;-0.94;96.16;98952.25;4945814;28;20051;-61
2021/12/03 06:33:52;;;;;;;19.02;10.50;;;;;;;-0.93;96.36;98953.88;4942471;28;20067;-61
2021/12/03 06:36:18;;;;;;;20.33;11.48;;;;;;;-0.95;96.29;98946.16;4945376;28;20804;-61
2021/12/03 06:38:43;;;;;;;19.98;10.98;;;;;;;-0.92;96.25;98950.25;4932349;29;20031;-61
2021/12/03 06:41:09;;;;;;;19.00;10.38;;;;;;;-0.92;96.29;98945.00;4945237;28;20561;-61
2021/12/03 06:43:35;;;;;;;22.77;13.20;;;;;;;-0.91;96.28;98949.25;4952325;28;20509;-61
2021/12/03 06:46:00;;;;;;;34.08;11.43;;;;;;;-0.93;96.80;98945.97;4948871;28;20051;-61
2021/12/03 06:48:26;;;;;;;22.98;10.85;;;;;;;-0.91;96.69;98951.88;4946706;28;20078;-61
2021/12/03 06:50:52;;;;;;;18.50;9.02;;;;;;;-0.91;96.57;98947.44;4945348;28;20102;-61
2021/12/03 06:53:20;;;;;;;21.45;11.43;;;;;;;-0.90;96.50;98943.00;4946088;28;20581;-62
2021/12/03 06:55:47;;;;;;;19.13;9.55;;;;;;;-0.88;97.06;98951.53;4950765;28;20047;-61
2021/12/03 06:58:14;;;;;;;24.27;12.10;;;;;;;-0.87;97.48;98963.72;4946032;28;20214;-61
2021/12/03 07:00:39;;;;;;;23.35;12.02;;;;;;;-0.79;96.84;98971.53;4950646;28;20042;-61
2021/12/03 07:03:05;;;;;;;23.17;11.27;;;;;;;-0.82;96.98;98964.00;4954949;28;20034;-61
2021/12/03 07:05:31;;;;;;;19.30;10.38;;;;;;;-0.70;97.30;98970.50;4949566;28;20552;-61
2021/12/03 07:07:56;;;;;;;19.63;10.70;;;;;;;-0.70;96.44;98962.59;4944018;28;20034;-61
2021/12/03 07:10:22;;;;;;;25.50;11.18;;;;;;;-0.73;96.88;98970.00;4944934;28;20488;-61
2021/12/03 07:12:48;;;;;;;20.00;10.15;;;;;;;-0.66;96.25;98976.22;4945862;28;20393;-62
2021/12/03 07:15:13;;;;;;;17.45;9.57;;;;;;;-0.68;96.34;98973.75;4944507;28;20603;-61
2021/12/03 07:17:39;;;;;;;21.10;9.80;;;;;;;-0.62;96.66;98987.19;4945410;28;20046;-61
2021/12/03 07:20:06;;;;;;;24.38;10.88;;;;;;;-0.66;96.76;98982.28;4948825;28;20521;-62
2021/12/03 07:22:33;;;;;;;21.88;11.10;;;;;;;-0.67;96.31;98974.59;4951124;28;20034;-61
2021/12/03 07:24:58;;;;;;;26.23;9.25;;;;;;;-0.54;95.89;98984.53;4946486;28;20149;-61
2021/12/03 07:27:25;;;;;;;23.10;12.50;;;;;;;-0.54;96.08;98980.06;4945311;28;20047;-61
2021/12/03 07:29:50;;;;;;;23.85;10.23;;;;;;;-0.56;95.91;98974.16;4959815;28;20143;-62
2021/12/03 07:32:17;;;;;;;28.75;10.93;;;;;;;-0.51;95.83;98971.81;4954753;28;20046;-62
2021/12/03 07:34:42;;;;;;;25.90;10.05;;;;;;;-0.49;95.49;98975.09;4963742;28;20065;-61
2021/12/03 07:37:08;;;;;;;24.02;11.25;;;;;;;-0.47;95.45;98974.91;4947544;28;20054;-61
2021/12/03 07:39:34;;;;;;;20.17;10.35;;;;;;;-0.50;95.10;98981.34;4951244;28;20647;-61
2021/12/03 07:42:00;;;;;;;20.85;10.48;;;;;;;-0.53;94.92;98975.59;4948880;28;20357;-61
2021/12/03 07:44:25;;;;;;;21.02;9.75;;;;;;;-0.46;94.86;98972.09;4964094;28;20397;-62
2021/12/03 07:46:51;;;;;;;22.75;9.73;;;;;;;-0.40;94.55;98975.00;4944703;28;20477;-61
2021/12/03 07:49:16;;;;;;;23.42;10.00;;;;;;;-0.36;94.28;98982.38;4944722;28;20034;-61
2021/12/03 07:51:42;;;;;;;19.27;8.45;;;;;;;-0.31;94.15;98989.75;4944054;28;20478;-62
2021/12/03 07:54:08;;;;;;;17.50;8.90;;;;;;;-0.35;94.01;98981.41;4959785;28;20035;-62
2021/12/03 07:56:33;;;;;;;17.88;8.68;;;;;;;-0.35;94.14;98983.19;4944294;28;20067;-61
2021/12/03 07:58:59;;;;;;;15.88;8.68;;;;;;;-0.33;94.01;98982.00;4949430;28;20375;-61
2021/12/03 08:01:25;;;;;;;19.73;9.18;;;;;;;-0.33;93.91;98982.00;4947228;28;20047;-61
2021/12/03 08:03:50;;;;;;;15.02;7.70;;;;;;;-0.30;93.53;98986.94;4959486;28;20053;-61
2021/12/03 08:06:16;;;;;;;23.02;10.13;;;;;;;-0.21;93.54;98990.31;4964228;28;20047;-61
2021/12/03 08:08:42;;;;;;;13.18;6.85;;;;;;;-0.17;92.95;98993.44;4952059;28;20085;-61
2021/12/03 08:11:08;;;;;;;21.98;9.10;;;;;;;-0.15;92.59;98991.41;4944668;28;20047;-61
2021/12/03 08:13:34;;;;;;;33.65;14.23;;;;;;;-0.12;92.62;98994.53;4950959;28;20541;-61
2021/12/03 08:16:00;;;;;;;12.40;5.93;;;;;;;-0.06;92.01;98987.72;4949976;28;20387;-61
2021/12/03 08:18:26;;;;;;;17.67;6.50;;;;;;;0.02;91.36;98992.88;4944732;28;20134;-61
2021/12/03 08:20:53;;;;;;;14.57;8.25;;;;;;;0.11;91.60;98983.91;4943383;28;20466;-62
2021/12/03 08:23:18;;;;;;;18.85;8.63;;;;;;;0.02;91.16;98992.88;4948617;28;20027;-62
2021/12/03 08:25:44;;;;;;;21.98;7.85;;;;;;;0.15;90.96;98989.63;4962571;28;20429;-62
2021/12/03 08:28:10;;;;;;;15.38;8.02;;;;;;;0.08;90.59;98984.28;4944923;28;20023;-61
2021/12/03 08:30:35;;;;;;;19.00;8.48;;;;;;;0.20;90.65;98974.94;4947393;28;20073;-62
2021/12/03 08:33:01;;;;;;;16.88;9.75;;;;;;;0.21;90.41;98973.91;4947317;28;20058;-62
2021/12/03 08:35:26;;;;;;;13.65;6.07;;;;;;;0.06;90.49;98969.66;4949593;28;20141;-62
2021/12/03 08:37:52;;;;;;;16.17;7.45;;;;;;;0.14;90.40;98962.44;4944275;28;20037;-62
2021/12/03 08:40:19;;;;;;;22.63;11.07;;;;;;;0.17;90.17;98967.34;4944221;28;20394;-61
2021/12/03 08:42:45;;;;;;;16.25;6.55;;;;;;;0.10;90.05;98955.94;4943972;28;20100;-63
2021/12/03 08:45:11;;;;;;;21.77;9.57;;;;;;;0.19;90.66;98964.56;4943605;28;20055;-61
2021/12/03 08:47:38;;;;;;;16.38;7.75;;;;;;;0.29;90.41;98966.91;4927256;28;20121;-61
2021/12/03 08:50:07;;;;;;;14.85;7.15;;;;;;;0.14;89.98;98962.44;4946772;28;20314;-60
2021/12/03 08:55:17;;;;;;;13.10;5.72;;;;;;;0.29;89.21;98969.56;4948227;28;20106;-61
2021/12/03 08:57:43;;;;;;;16.67;6.93;;;;;;;0.26;89.59;98980.47;4942525;28;20410;-61
2021/12/03 09:00:16;;;;;;;15.10;6.40;;;;;;;0.29;89.47;98985.38;4943675;28;20035;-61
2021/12/03 09:02:42;;;;;;;15.43;7.57;;;;;;;0.19;89.90;98981.19;4955973;28;20031;-62
2021/12/03 09:05:08;;;;;;;8.50;5.07;;;;;;;0.19;89.94;98983.81;4948610;28;20491;-62
2021/12/03 09:07:35;;;;;;;13.35;6.80;;;;;;;0.27;89.42;98982.09;4949302;28;20452;-61
2021/12/03 09:10:01;;;;;;;17.23;6.63;;;;;;;0.35;88.99;98984.63;4958916;28;20668;-60
2021/12/03 09:12:26;;;;;;;11.52;5.95;;;;;;;0.32;89.38;98982.38;4926647;28;20232;-62
2021/12/03 09:14:56;;;;;;;13.10;5.82;;;;;;;0.32;89.08;98971.81;4949967;28;20039;-61
2021/12/03 09:20:23;;;;;;;11.35;4.88;;;;;;;0.34;89.09;98973.28;4956372;28;20305;-62
2021/12/03 09:22:51;;;;;;;12.63;5.43;;;;;;;0.38;88.89;98974.56;4945742;28;20134;-61
2021/12/03 09:25:22;;;;;;;11.13;5.20;;;;;;;0.38;88.62;98973.75;4944950;28;20505;-62
2021/12/03 09:27:47;;;;;;;10.63;5.00;;;;;;;0.52;87.71;98975.53;4942967;28;20034;-61
2021/12/03 09:30:14;;;;;;;15.48;5.53;;;;;;;0.57;87.92;98969.69;4955556;28;20031;-61
2021/12/03 09:32:42;;;;;;;11.80;5.40;;;;;;;0.72;87.51;98973.13;4950579;28;20378;-61
2021/12/03 09:35:09;;;;;;;11.15;4.95;;;;;;;0.84;86.92;98973.47;4976049;28;20032;-61
2021/12/03 09:37:35;;;;;;;11.13;4.90;;;;;;;0.82;86.95;98972.84;4948788;28;20061;-61
2021/12/03 09:40:05;;;;;;;10.43;4.97;;;;;;;0.84;87.44;98976.13;4943651;28;20145;-61
2021/12/03 09:42:34;;;;;;;11.52;4.47;;;;;;;0.84;87.05;98974.28;4942698;28;20497;-61
2021/12/03 09:45:00;;;;;;;13.15;4.90;;;;;;;1.13;87.38;98971.78;4946564;28;20038;-61
2021/12/03 09:47:25;;;;;;;10.10;4.65;;;;;;;0.90;86.19;98967.47;4965454;28;20039;-61
2021/12/03 09:49:55;;;;;;;11.27;4.95;;;;;;;1.21;88.31;98958.44;4947008;28;20104;-62
2021/12/03 09:52:38;;;;;;;6.45;2.95;;;;;;;0.89;86.02;98960.53;4946606;28;20055;-62
2021/12/03 09:55:14;;;;;;;9.57;4.20;;;;;;;0.92;86.51;98965.44;4946913;28;20559;-62
2021/12/03 10:11:53;;;;;;;5.97;3.83;;;;;;;1.26;86.66;98962.13;4949199;28;20165;-61
2021/12/03 11:03:24;;;;;;;11.88;4.50;;;;;;;1.25;83.87;98901.63;4947963;28;20126;-59
2021/12/03 12:18:09;;;;;;;11.43;4.47;;;;;;;0.75;87.45;98822.41;4949299;28;20515;-59
2021/12/03 13:11:31;;;;;;;16.48;5.93;;;;;;;1.08;86.23;98740.03;4943503;28;20043;-60
2021/12/03 13:21:49;;;;;;;12.00;6.15;;;;;;;1.01;86.12;98726.00;4961779;28;20045;-60
2021/12/03 13:27:51;;;;;;;12.18;4.82;;;;;;;0.94;86.13;98710.09;4978807;28;20674;-60
2021/12/03 13:33:08;;;;;;;13.32;6.32;;;;;;;0.94;86.71;98696.09;4963510;28;20306;-62
2021/12/03 14:39:06;;;;;;;12.77;4.85;;;;;;;0.99;87.08;98617.16;5051440;28;20056;-60
2021/12/03 14:52:49;;;;;;;10.70;3.63;;;;;;;0.95;86.08;98579.81;5076570;28;20958;-59
2021/12/03 14:55:25;;;;;;;6.53;4.18;;;;;;;1.01;86.51;98579.00;5075431;28;20071;-59
2021/12/03 14:57:57;;;;;;;10.00;5.40;;;;;;;1.06;86.41;98592.44;5064636;28;20700;-59
2021/12/03 15:03:09;;;;;;;10.90;4.63;;;;;;;1.11;86.42;98593.69;5050062;28;20032;-60
2021/12/03 15:05:58;;;;;;;10.60;4.82;;;;;;;1.02;86.06;98591.22;5055450;28;20078;-60
2021/12/03 15:08:30;;;;;;;7.30;3.70;;;;;;;1.17;86.28;98585.75;5054311;28;20166;-60
2021/12/03 15:30:32;;;;;;;10.20;4.97;;;;;;;0.92;87.57;98556.44;5010153;28;20434;-60
2021/12/03 16:05:07;;;;;;;17.17;3.97;;;;;;;1.02;87.06;98548.16;5040335;28;20441;-59
2021/12/03 16:46:40;;;;;;;9.65;5.50;;;;;;;1.33;85.20;98517.81;5040078;28;20041;-60
2021/12/03 16:51:51;;;;;;;11.85;4.82;;;;;;;1.30;85.19;98508.47;5042372;28;20166;-60
2021/12/03 16:54:31;;;;;;;11.30;3.70;;;;;;;1.26;85.28;98508.03;5041840;28;20260;-60
2021/12/03 16:56:56;;;;;;;11.85;4.30;;;;;;;1.32;85.02;98503.75;5040389;28;20044;-62
2021/12/03 16:59:22;;;;;;;7.40;4.07;;;;;;;1.35;85.00;98503.38;5041289;28;20635;-60
2021/12/03 17:21:25;;;;;;;9.50;4.22;;;;;;;1.42;85.14;98479.59;5034341;28;20041;-60
2021/12/03 17:48:00;;;;;;;10.00;3.75;;;;;;;1.38;85.07;98431.69;5057101;28;20197;-60
2021/12/03 18:08:33;;;;;;;6.50;3.40;;;;;;;1.49;85.14;98420.50;5058206;28;20040;-61
2021/12/03 18:14:09;;;;;;;7.55;3.88;;;;;;;1.41;85.15;98419.91;5058580;28;20029;-61
2021/12/03 18:56:45;;;;;;;8.10;3.78;;;;;;;1.35;86.34;98379.28;5054477;28;20048;-60
2021/12/03 18:59:10;;;;;;;4.78;3.45;;;;;;;1.41;85.95;98362.63;5056971;28;20067;-60
2021/12/03 19:01:36;;;;;;;4.82;2.92;;;;;;;1.40;85.98;98362.81;5053608;28;20151;-62
2021/12/03 19:04:11;;;;;;;5.97;3.22;;;;;;;1.38;86.17;98352.47;5061342;28;20404;-62
2021/12/03 19:06:45;;;;;;;5.78;3.20;;;;;;;1.39;85.88;98354.09;5058959;28;20052;-61
2021/12/03 19:14:49;;;;;;;4.28;3.17;;;;;;;1.41;86.29;98344.13;5062422;28;20417;-61
2021/12/03 19:17:15;;;;;;;6.45;3.75;;;;;;;1.36;86.42;98343.94;5062001;28;20055;-61
2021/12/03 19:19:44;;;;;;;6.22;4.22;;;;;;;1.46;87.20;98331.13;5063499;28;20028;-61
2021/12/03 19:22:10;;;;;;;11.75;4.72;;;;;;;1.49;86.83;98322.78;5062254;28;20032;-61
2021/12/03 19:24:35;;;;;;;10.50;5.53;;;;;;;1.47;86.76;98330.13;5064201;28;20505;-61
2021/12/03 19:27:02;;;;;;;6.82;3.72;;;;;;;1.48;86.52;98330.94;5063737;28;20079;-61
2021/12/03 19:29:28;;;;;;;10.05;5.15;;;;;;;1.43;86.64;98336.81;5057260;28;20113;-61
2021/12/03 19:31:55;;;;;;;7.00;4.07;;;;;;;1.39;87.03;98330.31;5059682;28;20445;-61